Airfield :
LOGIN :

Register | Disclaimer

   EN    FR    IT 

 










Legend :    VFR   Marginal VFR   IFR   Intensive IFR   Very Intensive IFR
Visi :
Ceiling :
>= 8 km
>= 3000ft
5 to 8 km
1000 to 3000 ft
1500m to 5 km
500 to 1000 ft
800 to 1500m
200 to 500 ft
< 800m
< 200 ft
Symbols :   Thunderstorms  Fog  Heavy snow  Heavy precipitations  Wind > 20 kt
SIGMETs :     Misc.  Thunderstorms  Icing  Turbulence  Mountain Waves  Volcanic Ashes







- Airport Elevation : 2595 ft
- IATA code : SLM


LESA - Salamanca Matacan

CURRENT METAR :
  • 250830Z 16003KT 100V200 CAVOK 17/10 Q1020

EXPIRED METARs :
  • 250800Z 13003KT 100V160 CAVOK 15/11 Q1020
  • 250730Z 12003KT 080V160 CAVOK 13/10 Q1020
  • 250700Z VRB02KT CAVOK 11/08 Q1019
  • 250630Z VRB02KT CAVOK 10/08 Q1019
  • 250600Z 17005KT CAVOK 09/08 Q1019

TAF TAF LESA
Valid from the 25 at 06:00 until the 26 at 06:00 UTC


250500Z 2506/2606 08006KT CAVOK TX24/2515Z TN06/2506Z
PROB40
TEMPO 2512/2519 SCT035TCU
PROB30 2514/2519 TS SHRA SCT035CB
No reported NOTAMs for that airfield.



MET'MAP, your aeronautical weather chart ! - Copyright ORBIFLY December 2007 - Disclaimer

ORBIFLY MET'MAP TEAM :

Programming & Development : Alexandra Zaïnal
Concept & Development : Baudouin d'Aumeries
Co-Development & Prog : Marc-Olivier Méhu
Technical & hardware support : Manuel Goepfert

Contact : metmap@orbifly.com




SOURCES & CREDITS :

   NOAA